sensor_id;sensor_type;location;lat;lon;timestamp;temperature;humidity
27384;DHT22;14851;51.166;4.760;2023-03-04T00:02:10;5.60;99.90
27384;DHT22;14851;51.166;4.760;2023-03-04T00:04:38;5.60;99.90
27384;DHT22;14851;51.166;4.760;2023-03-04T00:07:04;5.60;99.90
27384;DHT22;14851;51.166;4.760;2023-03-04T00:09:30;5.60;99.90
27384;DHT22;14851;51.166;4.760;2023-03-04T00:11:58;5.60;99.90
27384;DHT22;14851;51.166;4.760;2023-03-04T00:14:24;5.60;99.90
27384;DHT22;14851;51.166;4.760;2023-03-04T00:16:50;5.60;99.90
27384;DHT22;14851;51.166;4.760;2023-03-04T00:19:16;5.60;99.90
27384;DHT22;14851;51.166;4.760;2023-03-04T00:21:42;5.50;99.90
27384;DHT22;14851;51.166;4.760;2023-03-04T00:24:08;5.60;99.90
27384;DHT22;14851;51.166;4.760;2023-03-04T00:26:36;5.60;99.90
27384;DHT22;14851;51.166;4.760;2023-03-04T00:29:05;5.60;99.90
27384;DHT22;14851;51.166;4.760;2023-03-04T00:31:33;5.60;99.90
27384;DHT22;14851;51.166;4.760;2023-03-04T00:33:59;5.60;99.90
27384;DHT22;14851;51.166;4.760;2023-03-04T00:36:25;5.60;99.90
27384;DHT22;14851;51.166;4.760;2023-03-04T00:38:54;5.50;99.90
27384;DHT22;14851;51.166;4.760;2023-03-04T00:41:20;5.50;99.90
27384;DHT22;14851;51.166;4.760;2023-03-04T00:43:46;5.50;99.90
27384;DHT22;14851;51.166;4.760;2023-03-04T00:46:14;5.50;99.90
27384;DHT22;14851;51.166;4.760;2023-03-04T00:48:40;5.50;99.90
27384;DHT22;14851;51.166;4.760;2023-03-04T00:51:06;5.50;99.90
27384;DHT22;14851;51.166;4.760;2023-03-04T00:53:32;5.50;99.90
27384;DHT22;14851;51.166;4.760;2023-03-04T00:55:58;5.50;99.90
27384;DHT22;14851;51.166;4.760;2023-03-04T00:58:24;5.50;99.90
27384;DHT22;14851;51.166;4.760;2023-03-04T01:00:51;5.60;99.90
27384;DHT22;14851;51.166;4.760;2023-03-04T01:03:18;5.60;99.90
27384;DHT22;14851;51.166;4.760;2023-03-04T01:05:43;5.50;99.90
27384;DHT22;14851;51.166;4.760;2023-03-04T01:08:09;5.60;99.90
27384;DHT22;14851;51.166;4.760;2023-03-04T01:10:35;5.50;99.90
27384;DHT22;14851;51.166;4.760;2023-03-04T01:13:02;5.50;99.90
27384;DHT22;14851;51.166;4.760;2023-03-04T01:15:31;5.50;99.90
27384;DHT22;14851;51.166;4.760;2023-03-04T01:17:59;5.50;99.90
27384;DHT22;14851;51.166;4.760;2023-03-04T01:20:25;5.50;99.90
27384;DHT22;14851;51.166;4.760;2023-03-04T01:22:51;5.50;99.90
27384;DHT22;14851;51.166;4.760;2023-03-04T01:25:18;5.50;99.90
27384;DHT22;14851;51.166;4.760;2023-03-04T01:27:44;5.50;99.90
27384;DHT22;14851;51.166;4.760;2023-03-04T01:30:10;5.50;99.90
27384;DHT22;14851;51.166;4.760;2023-03-04T01:32:36;5.50;99.90
27384;DHT22;14851;51.166;4.760;2023-03-04T01:35:02;5.50;99.90
27384;DHT22;14851;51.166;4.760;2023-03-04T01:37:29;5.50;99.90
27384;DHT22;14851;51.166;4.760;2023-03-04T01:39:57;5.50;99.90
27384;DHT22;14851;51.166;4.760;2023-03-04T01:42:25;5.60;99.90
27384;DHT22;14851;51.166;4.760;2023-03-04T01:44:52;5.60;99.90
27384;DHT22;14851;51.166;4.760;2023-03-04T01:47:19;5.60;99.90
27384;DHT22;14851;51.166;4.760;2023-03-04T01:49:53;5.60;99.90
27384;DHT22;14851;51.166;4.760;2023-03-04T01:52:20;5.60;99.90
27384;DHT22;14851;51.166;4.760;2023-03-04T01:54:47;5.50;99.90
27384;DHT22;14851;51.166;4.760;2023-03-04T01:57:22;5.50;99.90
27384;DHT22;14851;51.166;4.760;2023-03-04T02:02:48;5.50;99.90
27384;DHT22;14851;51.166;4.760;2023-03-04T02:05:16;5.50;99.90
27384;DHT22;14851;51.166;4.760;2023-03-04T02:07:42;5.50;99.90
27384;DHT22;14851;51.166;4.760;2023-03-04T02:10:09;5.50;99.90
27384;DHT22;14851;51.166;4.760;2023-03-04T02:12:36;5.50;99.90
27384;DHT22;14851;51.166;4.760;2023-03-04T02:15:02;5.50;99.90
27384;DHT22;14851;51.166;4.760;2023-03-04T02:17:28;5.60;99.90
27384;DHT22;14851;51.166;4.760;2023-03-04T02:22:20;5.50;99.90
27384;DHT22;14851;51.166;4.760;2023-03-04T02:25:06;5.50;99.90
27384;DHT22;14851;51.166;4.760;2023-03-04T02:27:35;5.50;99.90
27384;DHT22;14851;51.166;4.760;2023-03-04T02:30:05;5.50;99.90
27384;DHT22;14851;51.166;4.760;2023-03-04T02:32:32;5.50;99.90
27384;DHT22;14851;51.166;4.760;2023-03-04T02:34:59;5.50;99.90
27384;DHT22;14851;51.166;4.760;2023-03-04T02:37:25;5.50;99.90
27384;DHT22;14851;51.166;4.760;2023-03-04T02:39:54;5.50;99.90
27384;DHT22;14851;51.166;4.760;2023-03-04T02:42:20;5.60;99.90
27384;DHT22;14851;51.166;4.760;2023-03-04T02:44:58;5.60;99.90
27384;DHT22;14851;51.166;4.760;2023-03-04T02:47:24;5.60;99.90
27384;DHT22;14851;51.166;4.760;2023-03-04T02:49:50;5.60;99.90
27384;DHT22;14851;51.166;4.760;2023-03-04T02:52:21;5.50;99.90
27384;DHT22;14851;51.166;4.760;2023-03-04T02:54:47;5.60;99.90
27384;DHT22;14851;51.166;4.760;2023-03-04T02:57:13;5.50;99.90
27384;DHT22;14851;51.166;4.760;2023-03-04T02:59:42;5.60;99.90
27384;DHT22;14851;51.166;4.760;2023-03-04T03:02:13;5.50;99.90
27384;DHT22;14851;51.166;4.760;2023-03-04T03:04:39;5.50;99.90
27384;DHT22;14851;51.166;4.760;2023-03-04T03:07:08;5.60;99.90
27384;DHT22;14851;51.166;4.760;2023-03-04T03:09:35;5.50;99.90
27384;DHT22;14851;51.166;4.760;2023-03-04T03:12:01;5.50;99.90
27384;DHT22;14851;51.166;4.760;2023-03-04T03:14:31;5.50;99.90
27384;DHT22;14851;51.166;4.760;2023-03-04T03:16:57;5.50;99.90
27384;DHT22;14851;51.166;4.760;2023-03-04T03:19:23;5.50;99.90
27384;DHT22;14851;51.166;4.760;2023-03-04T03:21:50;5.50;99.90
27384;DHT22;14851;51.166;4.760;2023-03-04T03:24:18;5.50;99.90
27384;DHT22;14851;51.166;4.760;2023-03-04T03:26:44;5.50;99.90
27384;DHT22;14851;51.166;4.760;2023-03-04T03:29:12;5.50;99.90
27384;DHT22;14851;51.166;4.760;2023-03-04T03:31:37;5.60;99.90
27384;DHT22;14851;51.166;4.760;2023-03-04T03:34:03;5.50;99.90
27384;DHT22;14851;51.166;4.760;2023-03-04T03:36:29;5.50;99.90
27384;DHT22;14851;51.166;4.760;2023-03-04T03:38:55;5.50;99.90
27384;DHT22;14851;51.166;4.760;2023-03-04T03:41:21;5.50;99.90
27384;DHT22;14851;51.166;4.760;2023-03-04T03:43:47;5.50;99.90
27384;DHT22;14851;51.166;4.760;2023-03-04T03:46:13;5.60;99.90
27384;DHT22;14851;51.166;4.760;2023-03-04T03:48:39;5.50;99.90
27384;DHT22;14851;51.166;4.760;2023-03-04T03:51:05;5.50;99.90
27384;DHT22;14851;51.166;4.760;2023-03-04T03:53:30;5.50;99.90
27384;DHT22;14851;51.166;4.760;2023-03-04T03:55:56;5.50;99.90
27384;DHT22;14851;51.166;4.760;2023-03-04T03:58:23;5.50;99.90
27384;DHT22;14851;51.166;4.760;2023-03-04T04:00:51;5.50;99.90
27384;DHT22;14851;51.166;4.760;2023-03-04T04:03:17;5.50;99.90
27384;DHT22;14851;51.166;4.760;2023-03-04T04:05:48;5.60;99.90
27384;DHT22;14851;51.166;4.760;2023-03-04T04:08:15;5.60;99.90
27384;DHT22;14851;51.166;4.760;2023-03-04T04:10:42;5.50;99.90
27384;DHT22;14851;51.166;4.760;2023-03-04T04:13:08;5.50;99.90
27384;DHT22;14851;51.166;4.760;2023-03-04T04:15:36;5.50;99.90
27384;DHT22;14851;51.166;4.760;2023-03-04T04:18:04;5.50;99.90
27384;DHT22;14851;51.166;4.760;2023-03-04T04:20:32;5.50;99.90
27384;DHT22;14851;51.166;4.760;2023-03-04T04:22:58;5.50;99.90
27384;DHT22;14851;51.166;4.760;2023-03-04T04:25:24;5.50;99.90
27384;DHT22;14851;51.166;4.760;2023-03-04T04:27:52;5.50;99.90
27384;DHT22;14851;51.166;4.760;2023-03-04T04:30:20;5.50;99.90
27384;DHT22;14851;51.166;4.760;2023-03-04T04:32:46;5.50;99.90
27384;DHT22;14851;51.166;4.760;2023-03-04T04:35:12;5.50;99.90
27384;DHT22;14851;51.166;4.760;2023-03-04T04:37:37;5.50;99.90
27384;DHT22;14851;51.166;4.760;2023-03-04T04:40:06;5.50;99.90
27384;DHT22;14851;51.166;4.760;2023-03-04T04:42:32;5.50;99.90
27384;DHT22;14851;51.166;4.760;2023-03-04T04:44:58;5.50;99.90
27384;DHT22;14851;51.166;4.760;2023-03-04T04:47:24;5.50;99.90
27384;DHT22;14851;51.166;4.760;2023-03-04T04:49:52;5.50;99.90
27384;DHT22;14851;51.166;4.760;2023-03-04T04:52:21;5.50;99.90
27384;DHT22;14851;51.166;4.760;2023-03-04T04:54:46;5.50;99.90
27384;DHT22;14851;51.166;4.760;2023-03-04T04:57:12;5.50;99.90
27384;DHT22;14851;51.166;4.760;2023-03-04T04:59:40;5.50;99.90
27384;DHT22;14851;51.166;4.760;2023-03-04T05:02:08;5.50;99.90
27384;DHT22;14851;51.166;4.760;2023-03-04T05:04:34;5.40;99.90
27384;DHT22;14851;51.166;4.760;2023-03-04T05:07:00;5.40;99.90
27384;DHT22;14851;51.166;4.760;2023-03-04T05:09:26;5.50;99.90
27384;DHT22;14851;51.166;4.760;2023-03-04T05:11:52;5.40;99.90
27384;DHT22;14851;51.166;4.760;2023-03-04T05:14:18;5.50;99.90
27384;DHT22;14851;51.166;4.760;2023-03-04T05:16:44;5.40;99.90
27384;DHT22;14851;51.166;4.760;2023-03-04T05:19:10;5.40;99.90
27384;DHT22;14851;51.166;4.760;2023-03-04T05:21:35;5.40;99.90
27384;DHT22;14851;51.166;4.760;2023-03-04T05:24:02;5.40;99.90
27384;DHT22;14851;51.166;4.760;2023-03-04T05:26:28;5.40;99.90
27384;DHT22;14851;51.166;4.760;2023-03-04T05:28:54;5.40;99.90
27384;DHT22;14851;51.166;4.760;2023-03-04T05:31:20;5.40;99.90
27384;DHT22;14851;51.166;4.760;2023-03-04T05:33:46;5.40;99.90
27384;DHT22;14851;51.166;4.760;2023-03-04T05:36:12;5.40;99.90
27384;DHT22;14851;51.166;4.760;2023-03-04T05:38:39;5.40;99.90
27384;DHT22;14851;51.166;4.760;2023-03-04T05:41:05;5.40;99.90
27384;DHT22;14851;51.166;4.760;2023-03-04T05:43:33;5.40;99.90
27384;DHT22;14851;51.166;4.760;2023-03-04T05:46:01;5.40;99.90
27384;DHT22;14851;51.166;4.760;2023-03-04T05:48:28;5.40;99.90
27384;DHT22;14851;51.166;4.760;2023-03-04T05:50:56;5.40;99.90
27384;DHT22;14851;51.166;4.760;2023-03-04T05:53:24;5.40;99.90
27384;DHT22;14851;51.166;4.760;2023-03-04T05:55:51;5.40;99.90
27384;DHT22;14851;51.166;4.760;2023-03-04T05:58:17;5.40;99.90
27384;DHT22;14851;51.166;4.760;2023-03-04T06:00:44;5.40;99.90
27384;DHT22;14851;51.166;4.760;2023-03-04T06:03:18;5.40;99.90
27384;DHT22;14851;51.166;4.760;2023-03-04T06:05:45;5.40;99.90
27384;DHT22;14851;51.166;4.760;2023-03-04T06:08:11;5.40;99.90
27384;DHT22;14851;51.166;4.760;2023-03-04T06:10:39;5.40;99.90
27384;DHT22;14851;51.166;4.760;2023-03-04T06:13:05;5.40;99.90
27384;DHT22;14851;51.166;4.760;2023-03-04T06:15:31;5.40;99.90
27384;DHT22;14851;51.166;4.760;2023-03-04T06:17:59;5.40;99.90
27384;DHT22;14851;51.166;4.760;2023-03-04T06:20:25;5.40;99.90
27384;DHT22;14851;51.166;4.760;2023-03-04T06:22:53;5.40;99.90
27384;DHT22;14851;51.166;4.760;2023-03-04T06:25:19;5.40;99.90
27384;DHT22;14851;51.166;4.760;2023-03-04T06:27:45;5.40;99.90
27384;DHT22;14851;51.166;4.760;2023-03-04T06:30:11;5.40;99.90
27384;DHT22;14851;51.166;4.760;2023-03-04T06:32:37;5.40;99.90
27384;DHT22;14851;51.166;4.760;2023-03-04T06:35:06;5.40;99.90
27384;DHT22;14851;51.166;4.760;2023-03-04T06:37:32;5.40;99.90
27384;DHT22;14851;51.166;4.760;2023-03-04T06:39:58;5.40;99.90
27384;DHT22;14851;51.166;4.760;2023-03-04T06:42:24;5.40;99.90
27384;DHT22;14851;51.166;4.760;2023-03-04T06:44:51;5.40;99.90
27384;DHT22;14851;51.166;4.760;2023-03-04T06:47:17;5.40;99.90
27384;DHT22;14851;51.166;4.760;2023-03-04T06:49:43;5.40;99.90
27384;DHT22;14851;51.166;4.760;2023-03-04T06:52:09;5.50;99.90
27384;DHT22;14851;51.166;4.760;2023-03-04T06:54:38;5.40;99.90
27384;DHT22;14851;51.166;4.760;2023-03-04T06:57:04;5.50;99.90
27384;DHT22;14851;51.166;4.760;2023-03-04T06:59:30;5.50;99.90
27384;DHT22;14851;51.166;4.760;2023-03-04T07:01:56;5.50;99.90
27384;DHT22;14851;51.166;4.760;2023-03-04T07:04:22;5.50;99.90
27384;DHT22;14851;51.166;4.760;2023-03-04T07:06:49;5.50;99.90
27384;DHT22;14851;51.166;4.760;2023-03-04T07:09:16;5.50;99.90
27384;DHT22;14851;51.166;4.760;2023-03-04T07:11:46;5.50;99.90
27384;DHT22;14851;51.166;4.760;2023-03-04T07:14:12;5.50;99.90
27384;DHT22;14851;51.166;4.760;2023-03-04T07:16:38;5.50;99.90
27384;DHT22;14851;51.166;4.760;2023-03-04T07:19:05;5.50;99.90
27384;DHT22;14851;51.166;4.760;2023-03-04T07:21:31;5.50;99.90
27384;DHT22;14851;51.166;4.760;2023-03-04T07:23:57;5.50;99.90
27384;DHT22;14851;51.166;4.760;2023-03-04T07:26:22;5.50;99.90
27384;DHT22;14851;51.166;4.760;2023-03-04T07:28:48;5.50;99.90
27384;DHT22;14851;51.166;4.760;2023-03-04T07:33:48;5.60;99.90
27384;DHT22;14851;51.166;4.760;2023-03-04T07:36:14;5.60;99.90
27384;DHT22;14851;51.166;4.760;2023-03-04T07:38:48;5.60;99.90
27384;DHT22;14851;51.166;4.760;2023-03-04T07:41:15;5.60;99.90
27384;DHT22;14851;51.166;4.760;2023-03-04T07:43:44;5.60;99.90
27384;DHT22;14851;51.166;4.760;2023-03-04T07:46:10;5.60;99.90
27384;DHT22;14851;51.166;4.760;2023-03-04T07:48:36;5.60;99.90
27384;DHT22;14851;51.166;4.760;2023-03-04T07:51:16;5.70;99.90
27384;DHT22;14851;51.166;4.760;2023-03-04T07:53:45;5.70;99.90
27384;DHT22;14851;51.166;4.760;2023-03-04T07:56:16;5.70;99.90
27384;DHT22;14851;51.166;4.760;2023-03-04T07:58:42;5.70;99.90
27384;DHT22;14851;51.166;4.760;2023-03-04T08:01:13;5.70;99.90
27384;DHT22;14851;51.166;4.760;2023-03-04T08:03:39;5.70;99.90
27384;DHT22;14851;51.166;4.760;2023-03-04T08:06:11;5.70;99.90
27384;DHT22;14851;51.166;4.760;2023-03-04T08:08:40;5.80;99.90
27384;DHT22;14851;51.166;4.760;2023-03-04T08:11:09;5.80;99.90
27384;DHT22;14851;51.166;4.760;2023-03-04T08:13:35;5.80;99.90
27384;DHT22;14851;51.166;4.760;2023-03-04T08:16:02;5.80;99.90
27384;DHT22;14851;51.166;4.760;2023-03-04T08:18:28;5.90;99.90
27384;DHT22;14851;51.166;4.760;2023-03-04T08:20:53;5.90;99.90
27384;DHT22;14851;51.166;4.760;2023-03-04T08:23:22;5.90;99.90
27384;DHT22;14851;51.166;4.760;2023-03-04T08:25:48;5.90;99.90
27384;DHT22;14851;51.166;4.760;2023-03-04T08:28:15;6.00;99.90
27384;DHT22;14851;51.166;4.760;2023-03-04T08:30:41;6.00;99.90
27384;DHT22;14851;51.166;4.760;2023-03-04T08:33:08;6.00;99.90
27384;DHT22;14851;51.166;4.760;2023-03-04T08:35:38;6.00;99.90
27384;DHT22;14851;51.166;4.760;2023-03-04T08:38:05;6.10;99.90
27384;DHT22;14851;51.166;4.760;2023-03-04T08:40:34;6.10;99.90
27384;DHT22;14851;51.166;4.760;2023-03-04T08:43:00;6.10;99.90
27384;DHT22;14851;51.166;4.760;2023-03-04T08:45:26;6.10;99.90
27384;DHT22;14851;51.166;4.760;2023-03-04T08:47:53;6.10;99.90
27384;DHT22;14851;51.166;4.760;2023-03-04T08:50:19;6.10;99.90
27384;DHT22;14851;51.166;4.760;2023-03-04T08:52:46;6.10;99.90
27384;DHT22;14851;51.166;4.760;2023-03-04T08:55:12;6.00;99.90
27384;DHT22;14851;51.166;4.760;2023-03-04T08:57:38;6.10;99.90
27384;DHT22;14851;51.166;4.760;2023-03-04T09:00:04;6.20;99.90
27384;DHT22;14851;51.166;4.760;2023-03-04T09:02:30;6.20;99.90
27384;DHT22;14851;51.166;4.760;2023-03-04T09:04:55;6.20;99.90
27384;DHT22;14851;51.166;4.760;2023-03-04T09:07:22;6.20;99.90
27384;DHT22;14851;51.166;4.760;2023-03-04T09:09:48;6.30;99.90
27384;DHT22;14851;51.166;4.760;2023-03-04T09:12:14;6.30;99.90
27384;DHT22;14851;51.166;4.760;2023-03-04T09:14:40;6.30;99.90
27384;DHT22;14851;51.166;4.760;2023-03-04T09:17:08;6.20;99.90
27384;DHT22;14851;51.166;4.760;2023-03-04T09:19:37;6.30;99.90
27384;DHT22;14851;51.166;4.760;2023-03-04T09:22:03;6.30;99.90
27384;DHT22;14851;51.166;4.760;2023-03-04T09:24:29;6.30;99.90
27384;DHT22;14851;51.166;4.760;2023-03-04T09:26:55;6.30;99.90
27384;DHT22;14851;51.166;4.760;2023-03-04T09:29:21;6.30;99.90
27384;DHT22;14851;51.166;4.760;2023-03-04T09:31:47;6.40;99.90
27384;DHT22;14851;51.166;4.760;2023-03-04T09:34:13;6.40;99.90
27384;DHT22;14851;51.166;4.760;2023-03-04T09:36:39;6.30;99.90
27384;DHT22;14851;51.166;4.760;2023-03-04T09:39:05;6.40;99.90
27384;DHT22;14851;51.166;4.760;2023-03-04T09:41:43;6.40;99.90
27384;DHT22;14851;51.166;4.760;2023-03-04T09:46:46;6.40;99.90
27384;DHT22;14851;51.166;4.760;2023-03-04T09:49:13;6.40;99.90
27384;DHT22;14851;51.166;4.760;2023-03-04T09:51:44;6.40;99.90
27384;DHT22;14851;51.166;4.760;2023-03-04T09:54:16;6.40;99.90
27384;DHT22;14851;51.166;4.760;2023-03-04T09:56:45;6.40;99.90
27384;DHT22;14851;51.166;4.760;2023-03-04T09:59:16;6.50;99.90
27384;DHT22;14851;51.166;4.760;2023-03-04T10:01:49;6.50;99.90
27384;DHT22;14851;51.166;4.760;2023-03-04T10:04:58;6.50;99.90
27384;DHT22;14851;51.166;4.760;2023-03-04T10:07:26;6.50;99.90
27384;DHT22;14851;51.166;4.760;2023-03-04T10:10:12;6.50;99.90
27384;DHT22;14851;51.166;4.760;2023-03-04T10:12:45;6.40;99.90
27384;DHT22;14851;51.166;4.760;2023-03-04T10:18:02;6.50;99.90
27384;DHT22;14851;51.166;4.760;2023-03-04T10:20:47;6.60;99.90
27384;DHT22;14851;51.166;4.760;2023-03-04T10:23:18;6.70;99.90
27384;DHT22;14851;51.166;4.760;2023-03-04T10:25:46;6.80;99.90
27384;DHT22;14851;51.166;4.760;2023-03-04T10:28:16;6.80;99.90
27384;DHT22;14851;51.166;4.760;2023-03-04T10:33:32;6.90;99.90
27384;DHT22;14851;51.166;4.760;2023-03-04T10:38:51;6.90;99.90
27384;DHT22;14851;51.166;4.760;2023-03-04T10:41:23;7.00;99.90
27384;DHT22;14851;51.166;4.760;2023-03-04T10:44:15;7.00;99.90
27384;DHT22;14851;51.166;4.760;2023-03-04T10:46:46;7.10;99.90
27384;DHT22;14851;51.166;4.760;2023-03-04T10:49:17;7.10;99.90
27384;DHT22;14851;51.166;4.760;2023-03-04T10:51:53;7.20;99.90
27384;DHT22;14851;51.166;4.760;2023-03-04T10:54:41;7.30;99.90
27384;DHT22;14851;51.166;4.760;2023-03-04T10:57:19;7.30;99.90
27384;DHT22;14851;51.166;4.760;2023-03-04T10:59:46;7.40;99.90
27384;DHT22;14851;51.166;4.760;2023-03-04T11:02:18;7.30;99.90
27384;DHT22;14851;51.166;4.760;2023-03-04T11:04:52;7.30;99.90
27384;DHT22;14851;51.166;4.760;2023-03-04T11:07:20;7.40;99.90
27384;DHT22;14851;51.166;4.760;2023-03-04T11:09:46;7.50;99.90
27384;DHT22;14851;51.166;4.760;2023-03-04T11:12:14;7.50;99.90
27384;DHT22;14851;51.166;4.760;2023-03-04T11:14:44;7.60;99.90
27384;DHT22;14851;51.166;4.760;2023-03-04T11:17:39;7.60;99.90
27384;DHT22;14851;51.166;4.760;2023-03-04T11:20:14;7.60;99.90
27384;DHT22;14851;51.166;4.760;2023-03-04T11:22:43;7.70;99.90
27384;DHT22;14851;51.166;4.760;2023-03-04T11:25:31;7.70;99.90
27384;DHT22;14851;51.166;4.760;2023-03-04T11:28:19;7.70;99.90
27384;DHT22;14851;51.166;4.760;2023-03-04T11:30:56;7.80;99.90
27384;DHT22;14851;51.166;4.760;2023-03-04T11:33:36;7.70;99.90
27384;DHT22;14851;51.166;4.760;2023-03-04T11:36:32;7.70;99.90
27384;DHT22;14851;51.166;4.760;2023-03-04T11:38:59;7.70;99.90
27384;DHT22;14851;51.166;4.760;2023-03-04T11:41:35;7.70;99.90
27384;DHT22;14851;51.166;4.760;2023-03-04T11:44:05;7.60;99.90
27384;DHT22;14851;51.166;4.760;2023-03-04T11:57:54;7.80;99.90
27384;DHT22;14851;51.166;4.760;2023-03-04T12:03:22;7.80;99.90
27384;DHT22;14851;51.166;4.760;2023-03-04T12:11:36;7.70;99.90
27384;DHT22;14851;51.166;4.760;2023-03-04T12:14:24;7.70;99.90
27384;DHT22;14851;51.166;4.760;2023-03-04T12:25:20;7.90;99.90
27384;DHT22;14851;51.166;4.760;2023-03-04T12:36:31;8.00;99.90
27384;DHT22;14851;51.166;4.760;2023-03-04T12:44:42;8.00;99.90
27384;DHT22;14851;51.166;4.760;2023-03-04T12:55:11;8.00;99.90
27384;DHT22;14851;51.166;4.760;2023-03-04T12:57:38;8.00;99.90
27384;DHT22;14851;51.166;4.760;2023-03-04T13:08:58;8.00;99.90
27384;DHT22;14851;51.166;4.760;2023-03-04T13:14:04;8.00;99.90
27384;DHT22;14851;51.166;4.760;2023-03-04T13:16:49;8.00;99.90
27384;DHT22;14851;51.166;4.760;2023-03-04T13:22:27;8.00;99.90
27384;DHT22;14851;51.166;4.760;2023-03-04T13:24:57;8.10;99.90
27384;DHT22;14851;51.166;4.760;2023-03-04T13:28:04;8.20;99.90
27384;DHT22;14851;51.166;4.760;2023-03-04T13:36:00;8.20;99.90
27384;DHT22;14851;51.166;4.760;2023-03-04T13:41:45;8.30;99.90
27384;DHT22;14851;51.166;4.760;2023-03-04T13:47:58;8.30;99.90
27384;DHT22;14851;51.166;4.760;2023-03-04T13:50:47;8.30;99.90
27384;DHT22;14851;51.166;4.760;2023-03-04T13:56:41;8.40;99.90
27384;DHT22;14851;51.166;4.760;2023-03-04T14:02:17;8.40;99.90
27384;DHT22;14851;51.166;4.760;2023-03-04T14:04:58;8.30;99.90
27384;DHT22;14851;51.166;4.760;2023-03-04T14:07:35;8.30;99.90
27384;DHT22;14851;51.166;4.760;2023-03-04T14:10:23;8.20;99.90
27384;DHT22;14851;51.166;4.760;2023-03-04T14:13:05;8.20;99.90
27384;DHT22;14851;51.166;4.760;2023-03-04T14:15:31;8.20;99.90
27384;DHT22;14851;51.166;4.760;2023-03-04T14:18:02;8.10;99.90
27384;DHT22;14851;51.166;4.760;2023-03-04T14:20:36;8.10;99.90
27384;DHT22;14851;51.166;4.760;2023-03-04T14:23:30;8.10;99.90
27384;DHT22;14851;51.166;4.760;2023-03-04T14:26:13;8.10;99.90
27384;DHT22;14851;51.166;4.760;2023-03-04T14:28:44;8.10;99.90
27384;DHT22;14851;51.166;4.760;2023-03-04T14:31:22;8.10;99.90
27384;DHT22;14851;51.166;4.760;2023-03-04T14:33:52;8.10;99.90
27384;DHT22;14851;51.166;4.760;2023-03-04T14:36:24;8.10;99.90
27384;DHT22;14851;51.166;4.760;2023-03-04T14:39:03;8.10;99.90
27384;DHT22;14851;51.166;4.760;2023-03-04T14:41:35;8.10;99.90
27384;DHT22;14851;51.166;4.760;2023-03-04T14:46:47;8.00;99.90
27384;DHT22;14851;51.166;4.760;2023-03-04T14:49:14;8.10;99.90
27384;DHT22;14851;51.166;4.760;2023-03-04T14:51:47;8.10;99.90
27384;DHT22;14851;51.166;4.760;2023-03-04T14:54:36;8.20;99.90
27384;DHT22;14851;51.166;4.760;2023-03-04T14:57:24;8.30;99.90
27384;DHT22;14851;51.166;4.760;2023-03-04T14:59:52;8.30;99.90
27384;DHT22;14851;51.166;4.760;2023-03-04T15:05:06;8.30;99.90
27384;DHT22;14851;51.166;4.760;2023-03-04T15:07:34;8.30;99.90
27384;DHT22;14851;51.166;4.760;2023-03-04T15:10:04;8.20;99.90
27384;DHT22;14851;51.166;4.760;2023-03-04T15:12:33;8.20;99.90
27384;DHT22;14851;51.166;4.760;2023-03-04T15:17:57;8.20;99.90
27384;DHT22;14851;51.166;4.760;2023-03-04T15:20:28;8.10;99.90
27384;DHT22;14851;51.166;4.760;2023-03-04T15:25:20;8.00;99.90
27384;DHT22;14851;51.166;4.760;2023-03-04T15:27:47;8.00;99.90
27384;DHT22;14851;51.166;4.760;2023-03-04T15:30:21;8.00;99.90
27384;DHT22;14851;51.166;4.760;2023-03-04T15:32:48;8.00;99.90
27384;DHT22;14851;51.166;4.760;2023-03-04T15:35:16;7.90;99.90
27384;DHT22;14851;51.166;4.760;2023-03-04T15:37:43;7.90;99.90
27384;DHT22;14851;51.166;4.760;2023-03-04T15:40:14;7.90;99.90
27384;DHT22;14851;51.166;4.760;2023-03-04T15:42:41;7.90;99.90
27384;DHT22;14851;51.166;4.760;2023-03-04T15:45:23;8.00;99.90
27384;DHT22;14851;51.166;4.760;2023-03-04T15:47:49;8.00;99.90
27384;DHT22;14851;51.166;4.760;2023-03-04T15:50:17;8.00;99.90
27384;DHT22;14851;51.166;4.760;2023-03-04T15:52:44;8.00;99.90
27384;DHT22;14851;51.166;4.760;2023-03-04T15:55:17;8.10;99.90
27384;DHT22;14851;51.166;4.760;2023-03-04T15:57:45;8.10;99.90
27384;DHT22;14851;51.166;4.760;2023-03-04T16:00:16;8.10;99.90
27384;DHT22;14851;51.166;4.760;2023-03-04T16:02:44;8.10;99.90
27384;DHT22;14851;51.166;4.760;2023-03-04T16:05:11;8.10;99.90
27384;DHT22;14851;51.166;4.760;2023-03-04T16:07:38;8.10;99.90
27384;DHT22;14851;51.166;4.760;2023-03-04T16:10:26;8.10;99.90
27384;DHT22;14851;51.166;4.760;2023-03-04T16:12:55;8.10;99.90
27384;DHT22;14851;51.166;4.760;2023-03-04T16:15:24;8.10;99.90
27384;DHT22;14851;51.166;4.760;2023-03-04T16:17:52;8.10;99.90
27384;DHT22;14851;51.166;4.760;2023-03-04T16:20:21;8.20;99.90
27384;DHT22;14851;51.166;4.760;2023-03-04T16:22:50;8.20;99.90
27384;DHT22;14851;51.166;4.760;2023-03-04T16:25:19;8.20;99.90
27384;DHT22;14851;51.166;4.760;2023-03-04T16:27:45;8.20;99.90
27384;DHT22;14851;51.166;4.760;2023-03-04T16:30:19;8.20;99.90
27384;DHT22;14851;51.166;4.760;2023-03-04T16:32:46;8.10;99.90
27384;DHT22;14851;51.166;4.760;2023-03-04T16:35:15;8.20;99.90
27384;DHT22;14851;51.166;4.760;2023-03-04T16:37:42;8.10;99.90
27384;DHT22;14851;51.166;4.760;2023-03-04T16:40:14;8.10;99.90
27384;DHT22;14851;51.166;4.760;2023-03-04T16:42:41;8.10;99.90
27384;DHT22;14851;51.166;4.760;2023-03-04T16:45:17;8.10;99.90
27384;DHT22;14851;51.166;4.760;2023-03-04T16:47:44;8.10;99.90
27384;DHT22;14851;51.166;4.760;2023-03-04T16:50:15;8.00;99.90
27384;DHT22;14851;51.166;4.760;2023-03-04T16:52:47;8.00;99.90
27384;DHT22;14851;51.166;4.760;2023-03-04T16:55:19;8.00;99.90
27384;DHT22;14851;51.166;4.760;2023-03-04T16:57:47;8.00;99.90
27384;DHT22;14851;51.166;4.760;2023-03-04T17:00:15;8.00;99.90
27384;DHT22;14851;51.166;4.760;2023-03-04T17:02:55;8.00;99.90
27384;DHT22;14851;51.166;4.760;2023-03-04T17:05:24;8.00;99.90
27384;DHT22;14851;51.166;4.760;2023-03-04T17:07:52;8.00;99.90
27384;DHT22;14851;51.166;4.760;2023-03-04T17:10:18;8.00;99.90
27384;DHT22;14851;51.166;4.760;2023-03-04T17:12:44;8.00;99.90
27384;DHT22;14851;51.166;4.760;2023-03-04T17:15:13;8.00;99.90
27384;DHT22;14851;51.166;4.760;2023-03-04T17:17:40;7.90;99.90
27384;DHT22;14851;51.166;4.760;2023-03-04T17:20:09;7.90;99.90
27384;DHT22;14851;51.166;4.760;2023-03-04T17:22:35;7.90;99.90
27384;DHT22;14851;51.166;4.760;2023-03-04T17:25:05;7.90;99.90
27384;DHT22;14851;51.166;4.760;2023-03-04T17:27:31;7.80;99.90
27384;DHT22;14851;51.166;4.760;2023-03-04T17:29:58;7.80;99.90
27384;DHT22;14851;51.166;4.760;2023-03-04T17:32:24;7.80;99.90
27384;DHT22;14851;51.166;4.760;2023-03-04T17:34:54;7.80;99.90
27384;DHT22;14851;51.166;4.760;2023-03-04T17:37:21;7.80;99.90
27384;DHT22;14851;51.166;4.760;2023-03-04T17:39:47;7.80;99.90
27384;DHT22;14851;51.166;4.760;2023-03-04T17:42:13;7.80;99.90
27384;DHT22;14851;51.166;4.760;2023-03-04T17:44:39;7.80;99.90
27384;DHT22;14851;51.166;4.760;2023-03-04T17:47:05;7.80;99.90
27384;DHT22;14851;51.166;4.760;2023-03-04T17:49:31;7.80;99.90
27384;DHT22;14851;51.166;4.760;2023-03-04T17:52:01;7.70;99.90